Time;durP1;ratioP1;P1;durP2;ratioP2;P2;SDS_P1;SDS_P2;PMS_P1;PMS_P2;Temp;Humidity;BMP_temperature;BMP_pressure;BME280_temperature;BME280_humidity;BME280_pressure;Samples;Min_cycle;Max_cycle;Signal;HPM_P1;HPM_P2
2024/01/04 00:01:58;;;;;;;1.97;0.90;;;5.80;99.90;;;;;;4970287;28;20197;-54
2024/01/04 00:04:25;;;;;;;3.67;0.80;;;5.80;99.90;;;;;;4998065;28;20308;-54
2024/01/04 00:06:52;;;;;;;2.20;0.90;;;5.70;99.90;;;;;;5002968;28;20735;-54
2024/01/04 00:09:19;;;;;;;3.80;0.60;;;5.80;99.90;;;;;;4998992;28;20196;-52
2024/01/04 00:11:46;;;;;;;0.87;0.73;;;5.80;99.90;;;;;;4982806;28;20448;-53
2024/01/04 00:14:13;;;;;;;3.20;0.90;;;5.70;99.90;;;;;;4995545;28;20216;-52
2024/01/04 00:16:41;;;;;;;1.40;0.53;;;5.70;99.90;;;;;;4971759;28;20331;-54
2024/01/04 00:19:08;;;;;;;0.97;0.50;;;5.70;99.90;;;;;;4997262;28;20197;-54
2024/01/04 00:21:34;;;;;;;3.80;1.37;;;5.70;99.90;;;;;;5001797;28;20251;-53
2024/01/04 00:24:01;;;;;;;1.60;0.97;;;5.70;99.90;;;;;;4998434;28;20229;-52
2024/01/04 00:26:28;;;;;;;2.23;0.80;;;5.60;99.90;;;;;;4980099;28;20216;-49
2024/01/04 00:28:55;;;;;;;2.67;0.80;;;5.60;99.90;;;;;;5000704;28;20424;-54
2024/01/04 00:31:22;;;;;;;3.17;0.70;;;5.60;99.90;;;;;;4972813;28;20230;-52
2024/01/04 00:33:50;;;;;;;4.23;0.80;;;5.70;99.90;;;;;;5000698;28;20212;-54
2024/01/04 00:36:17;;;;;;;1.03;0.60;;;5.60;99.90;;;;;;4998287;28;20197;-52
2024/01/04 00:38:44;;;;;;;0.50;0.40;;;5.60;99.90;;;;;;4995477;28;20201;-53
2024/01/04 00:41:11;;;;;;;2.00;0.50;;;5.60;99.90;;;;;;4981959;28;20243;-52
2024/01/04 00:43:38;;;;;;;2.00;0.40;;;5.60;99.90;;;;;;4999265;28;20212;-50
2024/01/04 00:46:05;;;;;;;3.27;0.73;;;5.60;99.90;;;;;;4967557;28;20872;-52
2024/01/04 00:48:32;;;;;;;2.90;0.80;;;5.60;99.90;;;;;;5003266;28;20227;-49
2024/01/04 00:51:01;;;;;;;0.97;0.43;;;5.60;99.90;;;;;;5003717;28;20572;-53
2024/01/04 00:53:28;;;;;;;5.73;0.50;;;5.60;99.90;;;;;;4992240;28;20212;-52
2024/01/04 00:55:55;;;;;;;2.67;0.70;;;5.60;99.90;;;;;;4997870;28;20197;-49
2024/01/04 00:58:21;;;;;;;1.90;0.40;;;5.50;99.90;;;;;;4991892;28;20896;-51
2024/01/04 01:00:48;;;;;;;3.60;0.53;;;5.50;99.90;;;;;;5005672;28;20203;-54
2024/01/04 01:03:15;;;;;;;1.47;0.50;;;5.50;99.90;;;;;;4973232;28;20907;-53
2024/01/04 01:05:42;;;;;;;1.50;0.30;;;5.50;99.90;;;;;;5002098;28;20974;-53
2024/01/04 01:08:10;;;;;;;2.27;0.63;;;5.50;99.90;;;;;;4995698;28;20207;-52
2024/01/04 01:10:37;;;;;;;4.03;0.60;;;5.50;99.90;;;;;;5004028;28;21562;-49
2024/01/04 01:13:04;;;;;;;1.10;0.57;;;5.50;99.90;;;;;;4992835;28;20279;-53
2024/01/04 01:15:33;;;;;;;2.83;0.40;;;5.50;99.90;;;;;;4999780;28;20235;-51
2024/01/04 01:18:00;;;;;;;1.60;0.50;;;5.50;99.90;;;;;;4975007;28;20212;-53
2024/01/04 01:20:27;;;;;;;0.50;0.40;;;5.50;99.90;;;;;;4997777;28;20264;-52
2024/01/04 01:22:54;;;;;;;1.53;0.63;;;5.50;99.90;;;;;;4998399;28;20185;-54
2024/01/04 01:25:22;;;;;;;1.17;0.50;;;5.50;99.90;;;;;;5001958;28;20205;-52
2024/01/04 01:27:49;;;;;;;1.50;0.60;;;5.50;99.90;;;;;;5005027;28;20201;-51
2024/01/04 01:30:16;;;;;;;0.90;0.40;;;5.50;99.90;;;;;;4988169;28;20204;-54
2024/01/04 01:32:42;;;;;;;2.90;0.50;;;5.50;99.90;;;;;;4974956;28;20217;-54
2024/01/04 01:35:09;;;;;;;1.60;0.50;;;5.50;99.90;;;;;;4995722;28;20225;-51
2024/01/04 01:37:37;;;;;;;2.67;0.47;;;5.50;99.90;;;;;;4999928;28;20637;-51
2024/01/04 01:40:04;;;;;;;3.83;0.63;;;5.50;99.90;;;;;;5003400;28;20199;-52
2024/01/04 01:42:32;;;;;;;2.10;0.30;;;5.40;99.90;;;;;;5003932;28;20187;-52
2024/01/04 01:45:00;;;;;;;1.43;0.40;;;5.40;99.90;;;;;;4999678;28;20233;-51
2024/01/04 01:47:27;;;;;;;1.07;0.50;;;5.40;99.90;;;;;;4958059;28;20209;-55
2024/01/04 01:49:54;;;;;;;1.27;0.60;;;5.40;99.90;;;;;;4996501;28;20201;-51
2024/01/04 01:52:22;;;;;;;3.17;0.73;;;5.40;99.90;;;;;;4996574;28;20205;-52
2024/01/04 01:54:51;;;;;;;1.27;0.30;;;5.30;99.90;;;;;;4999841;28;20221;-53
2024/01/04 01:57:18;;;;;;;1.90;0.70;;;5.30;99.90;;;;;;4999594;28;20204;-53
2024/01/04 01:59:46;;;;;;;0.60;0.43;;;5.30;99.90;;;;;;5005338;28;20216;-52
2024/01/04 02:02:14;;;;;;;3.70;0.70;;;5.30;99.90;;;;;;4989141;28;20556;-50
2024/01/04 02:04:41;;;;;;;0.43;0.30;;;5.20;99.90;;;;;;4973116;28;20216;-55
2024/01/04 02:07:08;;;;;;;1.90;0.50;;;5.20;99.90;;;;;;5001486;28;20275;-53
2024/01/04 02:09:35;;;;;;;1.53;0.63;;;5.20;99.90;;;;;;5002448;28;20628;-53
2024/01/04 02:12:06;;;;;;;0.40;0.30;;;5.20;99.90;;;;;;5003217;28;20730;-55
2024/01/04 02:14:33;;;;;;;0.90;0.40;;;5.10;99.90;;;;;;5000171;28;21018;-51
2024/01/04 02:17:01;;;;;;;4.27;0.40;;;5.10;99.90;;;;;;4982517;28;20212;-50
2024/01/04 02:19:28;;;;;;;0.97;0.50;;;5.10;99.90;;;;;;4969292;28;21936;-51
2024/01/04 02:21:55;;;;;;;0.73;0.60;;;5.10;99.90;;;;;;5003373;28;20934;-50
2024/01/04 02:24:23;;;;;;;0.70;0.57;;;5.10;99.90;;;;;;5000256;28;20279;-49
2024/01/04 02:26:50;;;;;;;1.97;0.47;;;5.00;99.90;;;;;;5003163;28;20251;-52
2024/01/04 02:29:17;;;;;;;0.30;0.30;;;5.00;99.90;;;;;;4996357;28;20189;-50
2024/01/04 02:31:45;;;;;;;1.27;0.40;;;5.00;99.90;;;;;;4995621;28;20220;-51
2024/01/04 02:34:12;;;;;;;1.50;0.40;;;5.00;99.90;;;;;;4978796;28;20709;-53
2024/01/04 02:36:39;;;;;;;2.63;0.40;;;5.00;99.90;;;;;;5002370;28;20205;-53
2024/01/04 02:39:06;;;;;;;2.50;0.80;;;5.00;99.90;;;;;;5001419;28;20544;-54
2024/01/04 02:41:34;;;;;;;1.93;0.40;;;5.00;99.90;;;;;;5002674;28;20188;-50
2024/01/04 02:44:00;;;;;;;1.43;0.33;;;5.00;99.90;;;;;;4996037;28;20303;-54
2024/01/04 02:46:28;;;;;;;0.97;0.30;;;4.90;99.90;;;;;;4996478;28;20223;-53
2024/01/04 02:48:54;;;;;;;0.93;0.30;;;4.90;99.90;;;;;;4991756;28;20251;-49
2024/01/04 02:51:21;;;;;;;1.47;0.30;;;4.90;99.90;;;;;;4970836;28;20882;-54
2024/01/04 02:53:48;;;;;;;0.33;0.30;;;4.80;99.90;;;;;;5003909;28;20279;-53
2024/01/04 02:56:15;;;;;;;0.40;0.40;;;4.70;99.90;;;;;;4995168;28;20763;-52
2024/01/04 02:58:45;;;;;;;2.17;0.33;;;4.70;99.90;;;;;;4995807;28;20877;-53
2024/01/04 03:01:12;;;;;;;0.33;0.33;;;4.70;99.90;;;;;;4997421;28;20282;-54
2024/01/04 03:03:39;;;;;;;1.63;0.30;;;4.70;99.90;;;;;;4992582;28;20193;-51
2024/01/04 03:06:05;;;;;;;1.27;0.40;;;4.60;99.90;;;;;;4983624;28;20730;-54
2024/01/04 03:08:33;;;;;;;0.33;0.33;;;4.60;99.90;;;;;;4999762;28;20284;-50
2024/01/04 03:10:59;;;;;;;2.60;0.30;;;4.60;99.90;;;;;;4997637;28;20704;-54
2024/01/04 03:13:26;;;;;;;2.00;0.30;;;4.60;99.90;;;;;;4993962;28;20263;-52
2024/01/04 03:15:54;;;;;;;0.53;0.20;;;4.60;99.90;;;;;;5003273;28;20239;-52
2024/01/04 03:18:21;;;;;;;0.93;0.30;;;4.50;99.90;;;;;;4991106;28;20942;-53
2024/01/04 03:20:48;;;;;;;0.80;0.40;;;4.50;99.90;;;;;;4990567;28;20249;-51
2024/01/04 03:23:15;;;;;;;1.87;0.53;;;4.50;99.90;;;;;;4970799;28;20228;-52
2024/01/04 03:25:41;;;;;;;0.40;0.40;;;4.50;99.90;;;;;;4995406;28;20239;-55
2024/01/04 03:28:08;;;;;;;1.70;0.47;;;4.50;99.90;;;;;;4997843;28;20618;-53
2024/01/04 03:30:35;;;;;;;0.83;0.70;;;4.40;99.90;;;;;;5002443;28;20708;-54
2024/01/04 03:33:03;;;;;;;1.37;0.50;;;4.40;99.90;;;;;;5001565;28;20763;-52
2024/01/04 03:35:30;;;;;;;1.87;0.60;;;4.40;99.90;;;;;;4988992;28;20233;-53
2024/01/04 03:37:57;;;;;;;1.63;0.70;;;4.40;99.90;;;;;;4970940;28;20209;-54
2024/01/04 03:40:24;;;;;;;1.10;0.60;;;4.30;99.90;;;;;;4993222;28;20184;-53
2024/01/04 03:42:51;;;;;;;1.03;0.50;;;4.30;99.90;;;;;;5001182;28;20805;-54
2024/01/04 03:45:17;;;;;;;0.73;0.70;;;4.20;99.90;;;;;;4999544;28;20205;-51
2024/01/04 03:47:44;;;;;;;2.37;0.60;;;4.10;99.90;;;;;;5001797;28;20259;-52
2024/01/04 03:50:13;;;;;;;0.50;0.50;;;4.10;99.90;;;;;;4999997;28;20223;-53
2024/01/04 03:52:39;;;;;;;0.70;0.50;;;4.00;99.90;;;;;;4985541;28;20630;-50
2024/01/04 03:55:07;;;;;;;0.80;0.80;;;4.00;99.90;;;;;;4964085;28;20250;-53
2024/01/04 03:57:34;;;;;;;1.10;0.80;;;3.90;99.90;;;;;;5001643;28;20200;-51
2024/01/04 04:00:01;;;;;;;1.10;0.83;;;3.80;99.90;;;;;;5001737;28;20718;-52
2024/01/04 04:02:28;;;;;;;0.93;0.60;;;3.70;99.90;;;;;;5004007;28;20180;-52
2024/01/04 04:04:56;;;;;;;0.50;0.50;;;3.80;99.90;;;;;;5004997;28;20221;-53
2024/01/04 04:07:24;;;;;;;0.97;0.77;;;3.70;99.90;;;;;;4975678;28;20201;-52
2024/01/04 04:09:51;;;;;;;0.70;0.70;;;3.70;99.90;;;;;;4969917;28;20212;-54
2024/01/04 04:12:17;;;;;;;0.63;0.63;;;3.60;99.90;;;;;;4999157;28;20351;-52
2024/01/04 04:14:44;;;;;;;1.10;0.60;;;3.60;99.90;;;;;;5001548;28;20220;-52
2024/01/04 04:17:10;;;;;;;0.67;0.67;;;3.60;99.90;;;;;;4999370;28;20205;-52
2024/01/04 04:19:37;;;;;;;1.10;0.90;;;3.60;99.90;;;;;;4999969;28;20201;-53
2024/01/04 04:22:04;;;;;;;0.63;0.63;;;3.50;99.90;;;;;;4986637;28;20695;-53
2024/01/04 04:24:33;;;;;;;0.60;0.47;;;3.40;99.90;;;;;;4964183;28;20347;-50
2024/01/04 04:26:59;;;;;;;1.63;0.90;;;3.40;99.90;;;;;;5001541;28;20235;-53
2024/01/04 04:29:26;;;;;;;1.37;0.90;;;3.40;99.90;;;;;;4999817;28;21043;-54
2024/01/04 04:31:54;;;;;;;1.20;0.63;;;3.40;99.90;;;;;;5002551;28;20201;-50
2024/01/04 04:34:21;;;;;;;0.70;0.70;;;3.30;99.90;;;;;;4990311;28;20215;-50
2024/01/04 04:36:49;;;;;;;3.47;1.00;;;3.30;99.90;;;;;;4994882;28;20231;-52
2024/01/04 04:39:15;;;;;;;1.23;0.80;;;3.30;99.90;;;;;;4956360;28;20202;-53
2024/01/04 04:41:44;;;;;;;0.57;0.57;;;3.30;99.90;;;;;;5002283;28;20201;-52
2024/01/04 04:44:10;;;;;;;0.70;0.70;;;3.20;99.90;;;;;;4999279;28;20266;-51
2024/01/04 04:46:37;;;;;;;1.17;0.60;;;3.10;99.90;;;;;;5001154;28;20576;-49
2024/01/04 04:49:04;;;;;;;1.23;0.80;;;3.10;99.90;;;;;;4992362;28;20861;-54
2024/01/04 04:51:31;;;;;;;0.60;0.60;;;3.00;99.90;;;;;;4996720;28;20197;-50
2024/01/04 04:53:58;;;;;;;1.27;1.17;;;3.00;99.90;;;;;;4995284;28;20609;-53
2024/01/04 04:56:25;;;;;;;1.77;1.47;;;3.00;99.90;;;;;;4978419;28;20902;-51
2024/01/04 04:58:53;;;;;;;1.90;1.80;;;2.90;99.90;;;;;;5001931;28;20240;-51
2024/01/04 05:01:20;;;;;;;1.87;1.77;;;2.80;99.90;;;;;;4992550;28;20188;-54
2024/01/04 05:03:47;;;;;;;2.20;2.00;;;2.80;99.90;;;;;;4994220;28;20221;-53
2024/01/04 05:06:13;;;;;;;1.77;1.67;;;2.80;99.90;;;;;;4999051;28;20258;-52
2024/01/04 05:08:41;;;;;;;2.00;1.77;;;2.80;99.90;;;;;;5001685;28;20590;-50
2024/01/04 05:11:07;;;;;;;1.03;1.03;;;2.70;99.90;;;;;;4970388;28;20244;-51
2024/01/04 05:13:34;;;;;;;1.53;1.43;;;2.60;99.90;;;;;;5000957;28;20293;-53
2024/01/04 05:16:03;;;;;;;1.50;1.40;;;2.60;99.90;;;;;;4991557;28;20267;-51
2024/01/04 05:18:29;;;;;;;1.00;1.00;;;2.50;99.90;;;;;;4993489;28;20213;-50
2024/01/04 05:20:58;;;;;;;2.30;1.30;;;2.40;99.90;;;;;;4995199;28;20569;-52
2024/01/04 05:23:25;;;;;;;1.17;1.07;;;2.40;99.90;;;;;;4998675;28;20201;-51
2024/01/04 05:25:52;;;;;;;1.43;1.40;;;2.40;99.90;;;;;;4970906;28;20197;-53
2024/01/04 05:28:19;;;;;;;1.50;1.40;;;2.40;99.90;;;;;;4997546;28;20193;-50
2024/01/04 05:30:46;;;;;;;1.87;1.57;;;2.30;99.90;;;;;;4998116;28;20255;-50
2024/01/04 05:33:15;;;;;;;1.77;1.43;;;2.30;99.90;;;;;;4992044;28;20251;-51
2024/01/04 05:35:42;;;;;;;1.70;1.60;;;2.30;99.90;;;;;;4998882;28;20228;-49
2024/01/04 05:38:09;;;;;;;1.87;1.70;;;2.20;99.90;;;;;;5005224;28;20610;-51
2024/01/04 05:40:36;;;;;;;1.53;1.43;;;2.20;99.90;;;;;;5005914;28;20193;-53
2024/01/04 05:43:03;;;;;;;1.20;1.20;;;2.20;99.90;;;;;;4974373;28;20235;-53
2024/01/04 05:45:29;;;;;;;1.30;1.20;;;2.20;99.90;;;;;;4996228;28;20266;-55
2024/01/04 05:47:56;;;;;;;1.07;1.00;;;2.10;99.90;;;;;;5003914;28;20192;-54
2024/01/04 05:50:25;;;;;;;1.13;1.10;;;2.10;99.90;;;;;;4995228;28;20323;-54
2024/01/04 05:52:52;;;;;;;1.73;1.40;;;2.10;99.90;;;;;;5005274;28;20965;-52
2024/01/04 05:55:19;;;;;;;1.43;0.97;;;2.10;99.90;;;;;;5001783;28;20209;-54
2024/01/04 05:57:45;;;;;;;1.53;1.03;;;2.10;99.90;;;;;;4969028;28;20751;-53
2024/01/04 06:00:14;;;;;;;0.90;0.90;;;2.10;99.90;;;;;;4996447;28;20271;-51
2024/01/04 06:02:40;;;;;;;0.77;0.77;;;2.10;99.90;;;;;;5005254;28;20189;-53
2024/01/04 06:05:08;;;;;;;1.00;1.00;;;2.00;99.90;;;;;;5002217;28;20221;-54
2024/01/04 06:07:36;;;;;;;0.97;0.97;;;2.00;99.90;;;;;;4998324;28;20206;-53
2024/01/04 06:10:04;;;;;;;0.90;0.90;;;2.00;99.90;;;;;;5002489;28;20236;-54
2024/01/04 06:12:31;;;;;;;1.23;1.00;;;2.00;99.90;;;;;;4958696;28;20213;-54
2024/01/04 06:14:58;;;;;;;1.00;0.90;;;2.00;99.90;;;;;;4996959;28;20307;-55
2024/01/04 06:17:25;;;;;;;0.83;0.83;;;2.00;99.90;;;;;;4996299;28;20677;-50
2024/01/04 06:19:52;;;;;;;0.93;0.93;;;1.90;99.90;;;;;;4995249;28;20205;-53
2024/01/04 06:22:18;;;;;;;3.17;1.13;;;1.90;99.90;;;;;;5002161;28;20815;-55
2024/01/04 06:24:47;;;;;;;1.53;1.00;;;1.90;99.90;;;;;;4987816;28;20225;-57
2024/01/04 06:27:13;;;;;;;0.77;0.77;;;1.80;99.90;;;;;;4995424;28;20196;-54
2024/01/04 06:29:40;;;;;;;0.83;0.83;;;1.80;99.90;;;;;;4963672;28;20247;-57
2024/01/04 06:32:08;;;;;;;0.50;0.50;;;1.80;99.90;;;;;;4989657;28;20303;-54
2024/01/04 06:34:35;;;;;;;0.70;0.60;;;1.80;99.90;;;;;;4995992;28;20228;-50
2024/01/04 06:37:02;;;;;;;0.83;0.83;;;1.70;99.90;;;;;;4989884;28;20810;-53
2024/01/04 06:39:29;;;;;;;1.80;0.70;;;1.70;99.90;;;;;;5002813;28;20292;-56
2024/01/04 06:41:57;;;;;;;1.33;0.50;;;1.60;99.90;;;;;;4988605;28;20201;-58
2024/01/04 06:44:24;;;;;;;0.33;0.33;;;1.60;99.90;;;;;;4974860;28;20246;-56
2024/01/04 06:46:51;;;;;;;1.03;0.90;;;1.60;99.90;;;;;;4985631;28;20283;-54
2024/01/04 06:49:18;;;;;;;1.40;0.80;;;1.60;99.90;;;;;;4997408;28;20263;-55
2024/01/04 06:51:45;;;;;;;0.53;0.50;;;1.60;99.90;;;;;;5000430;28;20251;-56
2024/01/04 06:54:11;;;;;;;1.40;0.80;;;1.60;99.90;;;;;;4993312;28;20640;-60
2024/01/04 06:56:38;;;;;;;1.00;0.60;;;1.60;99.90;;;;;;4994975;28;20299;-53
2024/01/04 06:59:06;;;;;;;0.60;0.60;;;1.60;99.90;;;;;;5001829;28;20696;-56
2024/01/04 07:01:34;;;;;;;1.60;0.60;;;1.60;99.90;;;;;;4975418;28;20291;-56
2024/01/04 07:04:01;;;;;;;1.63;0.67;;;1.60;99.90;;;;;;4991563;28;20303;-56
2024/01/04 07:06:28;;;;;;;0.87;0.80;;;1.50;99.90;;;;;;4995699;28;20196;-56
2024/01/04 07:08:55;;;;;;;0.80;0.80;;;1.50;99.90;;;;;;4985951;28;20216;-58
2024/01/04 07:11:22;;;;;;;0.60;0.50;;;1.50;99.90;;;;;;5012085;28;20196;-57
2024/01/04 07:13:49;;;;;;;2.20;0.70;;;1.50;99.90;;;;;;4997521;28;20220;-57
2024/01/04 07:16:18;;;;;;;1.17;0.70;;;1.60;99.90;;;;;;4974075;28;20209;-52
2024/01/04 07:18:44;;;;;;;2.07;0.80;;;1.50;99.90;;;;;;4990021;28;20192;-56
2024/01/04 07:21:13;;;;;;;0.60;0.60;;;1.50;99.90;;;;;;5003053;28;20191;-56
2024/01/04 07:23:40;;;;;;;1.13;0.90;;;1.50;99.90;;;;;;4982990;28;20294;-59
2024/01/04 07:26:07;;;;;;;0.90;0.70;;;1.50;99.90;;;;;;5005782;28;20687;-54
2024/01/04 07:28:34;;;;;;;1.13;0.50;;;1.50;99.90;;;;;;4994133;28;20208;-56
2024/01/04 07:31:01;;;;;;;0.70;0.70;;;1.50;99.90;;;;;;4976157;28;21957;-53
2024/01/04 07:33:29;;;;;;;0.93;0.70;;;1.60;99.90;;;;;;5000331;28;20225;-59
2024/01/04 07:35:56;;;;;;;0.93;0.80;;;1.50;99.90;;;;;;4992786;28;20240;-56
2024/01/04 07:38:23;;;;;;;1.33;0.80;;;1.50;99.90;;;;;;4999605;28;20196;-58
2024/01/04 07:40:50;;;;;;;0.80;0.80;;;1.50;99.90;;;;;;4991098;28;20196;-53
2024/01/04 07:43:16;;;;;;;0.70;0.63;;;1.60;99.90;;;;;;4995791;28;20200;-54
2024/01/04 07:45:43;;;;;;;0.83;0.50;;;1.60;99.90;;;;;;4970824;28;20220;-55
2024/01/04 07:48:11;;;;;;;1.63;0.83;;;1.60;99.90;;;;;;5000998;28;20203;-51
2024/01/04 07:50:39;;;;;;;0.63;0.63;;;1.50;99.90;;;;;;4985680;28;20291;-58
2024/01/04 07:53:07;;;;;;;1.20;0.73;;;1.60;99.90;;;;;;4996652;28;20200;-51
2024/01/04 07:55:34;;;;;;;1.97;0.63;;;1.60;99.90;;;;;;4992880;28;20212;-54
2024/01/04 07:58:01;;;;;;;0.73;0.73;;;1.60;99.90;;;;;;5002599;28;20233;-51
2024/01/04 08:00:28;;;;;;;0.60;0.60;;;1.60;99.90;;;;;;4989405;28;20192;-53
2024/01/04 08:02:54;;;;;;;1.93;0.90;;;1.60;99.90;;;;;;4981667;28;20218;-52
2024/01/04 08:05:21;;;;;;;0.70;0.70;;;1.60;99.90;;;;;;5001330;28;20224;-53
2024/01/04 08:07:49;;;;;;;0.70;0.70;;;1.60;99.90;;;;;;5002545;28;20188;-51
2024/01/04 08:10:16;;;;;;;0.87;0.67;;;1.60;99.90;;;;;;4987568;28;20212;-49
2024/01/04 08:12:45;;;;;;;0.73;0.70;;;1.60;99.90;;;;;;4999227;28;20220;-51
2024/01/04 08:15:12;;;;;;;0.97;0.53;;;1.60;99.90;;;;;;4988607;28;20244;-50
2024/01/04 08:17:39;;;;;;;0.63;0.60;;;1.60;99.90;;;;;;4952473;28;20232;-52
2024/01/04 08:20:07;;;;;;;3.70;0.80;;;1.60;99.90;;;;;;4987361;28;20215;-50
2024/01/04 08:22:34;;;;;;;2.53;0.83;;;1.60;99.90;;;;;;4993058;28;20265;-52
2024/01/04 08:25:02;;;;;;;0.80;0.67;;;1.60;99.90;;;;;;4972922;28;20300;-54
2024/01/04 08:27:29;;;;;;;2.83;0.90;;;1.50;99.90;;;;;;4995242;28;20207;-49
2024/01/04 08:29:56;;;;;;;0.80;0.80;;;1.50;99.90;;;;;;4997164;28;20192;-49
2024/01/04 08:32:23;;;;;;;2.13;0.53;;;1.60;99.90;;;;;;4960471;28;20228;-52
2024/01/04 08:34:50;;;;;;;1.63;0.90;;;1.50;99.90;;;;;;4994701;28;20291;-53
2024/01/04 08:37:18;;;;;;;4.00;0.80;;;1.50;99.90;;;;;;4990398;28;20285;-51
2024/01/04 08:39:45;;;;;;;0.73;0.60;;;1.50;99.90;;;;;;4982220;28;20732;-51
2024/01/04 08:42:13;;;;;;;1.27;0.80;;;1.50;99.90;;;;;;4982171;28;20444;-53
2024/01/04 08:44:41;;;;;;;3.00;0.70;;;1.50;99.90;;;;;;4996086;28;20235;-51
2024/01/04 08:47:08;;;;;;;1.17;0.70;;;1.60;99.90;;;;;;4992677;28;20185;-51
2024/01/04 08:49:34;;;;;;;1.00;0.83;;;1.50;99.90;;;;;;4976511;28;20945;-51
2024/01/04 08:52:01;;;;;;;1.03;0.80;;;1.50;99.90;;;;;;4989469;28;20349;-49
2024/01/04 08:54:28;;;;;;;0.40;0.40;;;1.60;99.90;;;;;;4999389;28;20294;-53
2024/01/04 08:56:55;;;;;;;1.00;0.90;;;1.50;99.90;;;;;;4979110;28;20575;-54
2024/01/04 08:59:24;;;;;;;1.60;0.53;;;1.60;99.90;;;;;;4991704;28;20201;-49
2024/01/04 09:01:50;;;;;;;0.83;0.57;;;1.60;99.90;;;;;;4997933;28;20216;-51
2024/01/04 09:04:19;;;;;;;2.57;0.83;;;1.60;99.90;;;;;;4968172;28;20228;-53
2024/01/04 09:06:45;;;;;;;1.00;0.90;;;1.60;99.90;;;;;;4996603;28;20212;-54
2024/01/04 09:09:13;;;;;;;0.53;0.53;;;1.50;99.90;;;;;;4986253;28;20216;-52
2024/01/04 09:11:41;;;;;;;0.53;0.53;;;1.50;99.90;;;;;;5001019;28;20509;-51
2024/01/04 09:14:11;;;;;;;0.70;0.60;;;1.60;99.90;;;;;;4989767;28;20920;-50
2024/01/04 09:16:40;;;;;;;3.13;0.77;;;1.50;99.90;;;;;;5005017;28;20208;-55
2024/01/04 09:19:07;;;;;;;0.60;0.60;;;1.50;99.90;;;;;;4972955;28;20239;-51
2024/01/04 09:21:34;;;;;;;0.83;0.80;;;1.50;99.90;;;;;;5005074;28;20205;-49
2024/01/04 09:24:01;;;;;;;0.73;0.63;;;1.50;99.90;;;;;;4990932;28;20254;-57
2024/01/04 09:26:28;;;;;;;1.40;0.60;;;1.50;99.90;;;;;;4996565;28;20203;-50
2024/01/04 09:28:54;;;;;;;1.77;0.60;;;1.40;99.90;;;;;;4987327;28;20602;-50
2024/01/04 09:31:21;;;;;;;0.70;0.57;;;1.40;99.90;;;;;;5003765;28;20197;-49
2024/01/04 09:33:50;;;;;;;0.50;0.50;;;1.40;99.90;;;;;;5005397;28;20827;-48
2024/01/04 09:36:17;;;;;;;2.57;0.73;;;1.40;99.90;;;;;;4973800;28;20314;-50
2024/01/04 09:38:44;;;;;;;3.67;1.07;;;1.50;99.90;;;;;;4990293;28;20201;-50
2024/01/04 09:41:18;;;;;;;0.73;0.50;;;1.50;99.90;;;;;;4992284;28;20212;-50
2024/01/04 09:43:45;;;;;;;1.17;0.53;;;1.50;99.90;;;;;;5002972;28;20925;-53
2024/01/04 09:46:18;;;;;;;0.83;0.60;;;1.50;99.90;;;;;;4996310;28;20208;-50
2024/01/04 09:48:55;;;;;;;1.00;0.53;;;1.50;99.90;;;;;;5002354;28;20200;-51
2024/01/04 09:51:22;;;;;;;0.60;0.60;;;1.50;99.90;;;;;;4973496;28;20204;-52
2024/01/04 09:53:53;;;;;;;2.27;0.60;;;1.40;99.90;;;;;;4993874;28;20740;-53
2024/01/04 09:56:21;;;;;;;3.30;0.80;;;1.40;99.90;;;;;;5000253;28;20216;-49
2024/01/04 09:58:48;;;;;;;1.37;0.80;;;1.40;99.90;;;;;;5001087;28;20224;-53
2024/01/04 10:01:20;;;;;;;1.37;0.70;;;1.50;99.90;;;;;;4990871;28;20192;-51
2024/01/04 10:03:48;;;;;;;0.60;0.60;;;1.40;99.90;;;;;;5004986;28;20228;-53
2024/01/04 10:06:23;;;;;;;1.87;0.67;;;1.40;99.90;;;;;;4970227;28;20412;-51
2024/01/04 10:08:56;;;;;;;0.80;0.80;;;1.40;99.90;;;;;;4992331;28;20200;-52
2024/01/04 10:11:28;;;;;;;1.23;0.70;;;1.40;99.90;;;;;;5013021;28;20208;-50
2024/01/04 10:13:55;;;;;;;1.27;0.60;;;1.40;99.90;;;;;;4999041;28;20242;-54
2024/01/04 10:16:23;;;;;;;1.60;0.70;;;1.40;99.90;;;;;;4997541;28;20262;-53
2024/01/04 10:18:51;;;;;;;0.60;0.57;;;1.30;99.90;;;;;;5003400;28;20228;-53
2024/01/04 10:21:20;;;;;;;2.77;1.27;;;1.30;99.90;;;;;;4999968;28;20974;-52
2024/01/04 10:23:57;;;;;;;2.70;0.90;;;1.30;99.90;;;;;;4967586;28;20307;-50
2024/01/04 10:26:23;;;;;;;3.13;0.87;;;1.30;99.90;;;;;;4999207;28;20227;-55
2024/01/04 10:28:55;;;;;;;1.77;1.07;;;1.30;99.90;;;;;;5005417;28;20605;-55
2024/01/04 10:31:22;;;;;;;0.80;0.80;;;1.30;99.90;;;;;;4983642;28;20278;-51
2024/01/04 10:33:57;;;;;;;2.53;0.73;;;1.30;99.90;;;;;;5000135;28;20347;-55
2024/01/04 10:36:28;;;;;;;1.87;1.17;;;1.30;99.90;;;;;;4991073;28;20233;-54
2024/01/04 10:38:58;;;;;;;0.80;0.80;;;1.30;99.90;;;;;;4964408;28;20224;-55
2024/01/04 10:41:25;;;;;;;2.10;0.70;;;1.30;99.90;;;;;;4999954;28;20193;-53
2024/01/04 10:43:52;;;;;;;2.07;0.80;;;1.30;99.90;;;;;;4988540;28;20224;-53
2024/01/04 10:46:18;;;;;;;3.80;0.80;;;1.30;99.90;;;;;;4999540;28;20339;-54
2024/01/04 10:48:46;;;;;;;2.93;0.73;;;1.30;99.90;;;;;;4992517;28;20761;-53
2024/01/04 10:51:16;;;;;;;1.00;0.80;;;1.30;99.90;;;;;;4995233;28;20267;-51
2024/01/04 10:53:45;;;;;;;1.33;0.90;;;1.30;99.90;;;;;;4970707;28;20266;-51
2024/01/04 10:56:12;;;;;;;0.60;0.60;;;1.30;99.90;;;;;;4998272;28;20570;-52
2024/01/04 10:58:41;;;;;;;1.87;0.97;;;1.30;99.90;;;;;;4991546;28;20201;-52
2024/01/04 11:01:09;;;;;;;1.00;0.90;;;1.40;99.90;;;;;;4991153;28;20199;-51
2024/01/04 11:03:37;;;;;;;1.07;0.60;;;1.40;99.90;;;;;;4993768;28;20506;-55
2024/01/04 11:06:12;;;;;;;1.10;1.00;;;1.40;99.90;;;;;;5001396;28;20185;-50
2024/01/04 11:08:47;;;;;;;3.20;0.60;;;1.40;99.90;;;;;;4969529;28;20212;-54
2024/01/04 11:11:18;;;;;;;1.63;0.80;;;1.40;99.90;;;;;;4990335;28;20209;-51
2024/01/04 11:13:47;;;;;;;1.97;1.00;;;1.50;99.90;;;;;;4991202;28;20192;-54
2024/01/04 11:16:41;;;;;;;1.10;0.90;;;1.50;99.90;;;;;;5005096;28;20299;-55
2024/01/04 11:19:18;;;;;;;3.03;0.70;;;1.40;99.90;;;;;;4999703;28;20216;-54
2024/01/04 11:22:07;;;;;;;1.03;0.90;;;1.40;99.90;;;;;;4994668;28;20734;-52
2024/01/04 11:24:52;;;;;;;1.57;0.80;;;1.30;99.90;;;;;;4973103;28;20225;-52
2024/01/04 11:27:22;;;;;;;1.00;0.80;;;1.40;99.90;;;;;;4991059;28;20201;-54
2024/01/04 11:29:53;;;;;;;1.80;0.97;;;1.40;99.90;;;;;;4989891;28;20287;-53
2024/01/04 11:32:28;;;;;;;1.23;0.77;;;1.40;99.90;;;;;;4984800;28;20578;-55
2024/01/04 11:34:58;;;;;;;2.10;0.83;;;1.40;99.90;;;;;;4999552;28;20232;-52
2024/01/04 11:37:29;;;;;;;3.47;0.70;;;1.40;99.90;;;;;;5004293;28;20225;-53
2024/01/04 11:40:15;;;;;;;1.90;0.80;;;1.40;99.90;;;;;;4960238;28;20680;-50
2024/01/04 11:42:47;;;;;;;1.90;0.77;;;1.50;99.90;;;;;;4989246;28;20187;-53
2024/01/04 11:45:19;;;;;;;2.07;0.80;;;1.40;99.90;;;;;;4987478;28;20213;-52
2024/01/04 11:47:51;;;;;;;1.00;0.60;;;1.40;99.90;;;;;;4994510;28;20209;-51
2024/01/04 11:50:28;;;;;;;0.73;0.60;;;1.40;99.90;;;;;;5009692;28;20555;-53
2024/01/04 11:53:08;;;;;;;2.00;0.70;;;1.40;99.90;;;;;;5000257;28;20223;-53
2024/01/04 11:55:36;;;;;;;0.80;0.80;;;1.40;99.90;;;;;;4970814;28;20223;-51
2024/01/04 11:58:08;;;;;;;1.70;0.70;;;1.40;99.90;;;;;;4988101;28;20211;-53
2024/01/04 12:00:38;;;;;;;1.53;0.80;;;1.40;99.90;;;;;;4986726;28;20217;-54
2024/01/04 12:03:21;;;;;;;1.50;0.90;;;1.40;99.90;;;;;;5004067;28;20216;-51
2024/01/04 12:05:55;;;;;;;0.40;0.40;;;1.40;99.90;;;;;;4999305;28;20343;-54
2024/01/04 12:08:32;;;;;;;0.90;0.60;;;1.40;99.90;;;;;;5002489;28;20195;-51
2024/01/04 12:11:04;;;;;;;1.57;0.97;;;1.40;99.90;;;;;;4970048;28;20612;-54
2024/01/04 12:13:34;;;;;;;0.67;0.60;;;1.40;99.90;;;;;;4978640;28;21798;-55
2024/01/04 12:16:14;;;;;;;1.47;0.73;;;1.40;99.90;;;;;;4994908;28;20233;-53
2024/01/04 12:18:42;;;;;;;1.47;0.70;;;1.40;99.90;;;;;;4992166;28;20208;-54
2024/01/04 12:21:13;;;;;;;0.97;0.87;;;1.40;99.90;;;;;;4981620;28;20335;-53
2024/01/04 12:23:42;;;;;;;1.97;0.90;;;1.40;99.90;;;;;;4994498;28;20267;-53
2024/01/04 12:26:23;;;;;;;3.37;0.90;;;1.40;99.90;;;;;;4967888;28;20205;-51
2024/01/04 12:28:59;;;;;;;1.40;0.80;;;1.40;99.90;;;;;;4989343;28;20301;-55
2024/01/04 12:31:34;;;;;;;0.80;0.77;;;1.40;99.90;;;;;;4994509;28;20200;-55
2024/01/04 12:34:09;;;;;;;1.77;0.80;;;1.40;99.90;;;;;;5001274;28;20348;-50
2024/01/04 12:36:41;;;;;;;2.00;0.93;;;1.40;99.90;;;;;;4990188;28;20212;-51
2024/01/04 12:39:18;;;;;;;1.53;0.73;;;1.40;99.90;;;;;;5001006;28;20205;-56
2024/01/04 12:41:50;;;;;;;2.93;0.90;;;1.40;99.90;;;;;;4966439;28;20204;-56
2024/01/04 12:44:22;;;;;;;1.13;0.80;;;1.40;99.90;;;;;;5008954;28;20675;-54
2024/01/04 12:46:53;;;;;;;1.00;0.80;;;1.50;99.90;;;;;;4992085;28;20954;-54
2024/01/04 12:49:30;;;;;;;2.03;1.00;;;1.40;99.90;;;;;;4998156;28;20563;-53
2024/01/04 12:52:12;;;;;;;1.43;1.00;;;1.40;99.90;;;;;;4989444;28;20437;-53
2024/01/04 12:54:43;;;;;;;0.80;0.63;;;1.40;99.90;;;;;;4989144;28;20302;-52
2024/01/04 12:57:16;;;;;;;3.03;0.80;;;1.40;99.90;;;;;;4970106;28;20339;-51
2024/01/04 12:59:56;;;;;;;1.30;0.83;;;1.40;99.90;;;;;;5002469;28;20258;-52
2024/01/04 13:02:27;;;;;;;1.13;0.80;;;1.40;99.90;;;;;;5001764;28;20251;-53
2024/01/04 13:05:00;;;;;;;2.77;0.90;;;1.40;99.90;;;;;;4998659;28;20219;-53